sensor_id;sensor_type;location;lat;lon;timestamp;P1;durP1;ratioP1;P2;durP2;ratioP2
18931;SDS011;9598;50.954;3.112;2022-08-01T00:02:16;13.65;;;8.02;;
18931;SDS011;9598;50.954;3.112;2022-08-01T00:07:18;9.98;;;7.93;;
18931;SDS011;9598;50.954;3.112;2022-08-01T00:12:21;10.95;;;7.97;;
18931;SDS011;9598;50.954;3.112;2022-08-01T00:17:23;9.85;;;8.85;;
18931;SDS011;9598;50.954;3.112;2022-08-01T00:22:26;11.43;;;9.82;;
18931;SDS011;9598;50.954;3.112;2022-08-01T00:27:29;10.90;;;9.70;;
18931;SDS011;9598;50.954;3.112;2022-08-01T00:32:31;12.40;;;11.10;;
18931;SDS011;9598;50.954;3.112;2022-08-01T00:37:33;13.88;;;12.40;;
18931;SDS011;9598;50.954;3.112;2022-08-01T00:42:37;16.67;;;14.27;;
18931;SDS011;9598;50.954;3.112;2022-08-01T00:47:39;17.70;;;15.10;;
18931;SDS011;9598;50.954;3.112;2022-08-01T00:52:41;14.32;;;12.82;;
18931;SDS011;9598;50.954;3.112;2022-08-01T00:57:45;13.63;;;11.52;;
18931;SDS011;9598;50.954;3.112;2022-08-01T01:02:48;14.05;;;10.38;;
18931;SDS011;9598;50.954;3.112;2022-08-01T01:07:52;11.60;;;9.07;;
18931;SDS011;9598;50.954;3.112;2022-08-01T01:13:02;12.57;;;7.50;;
18931;SDS011;9598;50.954;3.112;2022-08-01T01:18:09;17.65;;;6.60;;
18931;SDS011;9598;50.954;3.112;2022-08-01T01:23:23;12.15;;;5.75;;
18931;SDS011;9598;50.954;3.112;2022-08-01T01:28:40;12.02;;;5.47;;
18931;SDS011;9598;50.954;3.112;2022-08-01T01:33:50;16.00;;;6.05;;
18931;SDS011;9598;50.954;3.112;2022-08-01T01:38:53;14.63;;;6.00;;
18931;SDS011;9598;50.954;3.112;2022-08-01T01:43:58;12.30;;;5.45;;
18931;SDS011;9598;50.954;3.112;2022-08-01T01:49:03;8.70;;;4.70;;
18931;SDS011;9598;50.954;3.112;2022-08-01T01:54:05;9.75;;;4.28;;
18931;SDS011;9598;50.954;3.112;2022-08-01T01:59:11;7.72;;;4.35;;
18931;SDS011;9598;50.954;3.112;2022-08-01T02:04:13;10.75;;;4.57;;
18931;SDS011;9598;50.954;3.112;2022-08-01T02:09:16;6.00;;;3.50;;
18931;SDS011;9598;50.954;3.112;2022-08-01T02:14:22;4.32;;;3.28;;
18931;SDS011;9598;50.954;3.112;2022-08-01T02:19:24;5.95;;;3.97;;
18931;SDS011;9598;50.954;3.112;2022-08-01T02:24:29;6.13;;;3.45;;
18931;SDS011;9598;50.954;3.112;2022-08-01T02:29:39;5.45;;;3.72;;
18931;SDS011;9598;50.954;3.112;2022-08-01T02:34:45;5.82;;;3.05;;
18931;SDS011;9598;50.954;3.112;2022-08-01T02:39:50;5.82;;;3.50;;
18931;SDS011;9598;50.954;3.112;2022-08-01T02:44:56;4.82;;;3.50;;
18931;SDS011;9598;50.954;3.112;2022-08-01T02:49:59;5.90;;;3.38;;
18931;SDS011;9598;50.954;3.112;2022-08-01T02:55:03;4.93;;;3.60;;
18931;SDS011;9598;50.954;3.112;2022-08-01T03:00:09;6.03;;;3.47;;
18931;SDS011;9598;50.954;3.112;2022-08-01T03:05:12;4.47;;;2.85;;
18931;SDS011;9598;50.954;3.112;2022-08-01T03:10:15;4.90;;;3.08;;
18931;SDS011;9598;50.954;3.112;2022-08-01T03:15:19;3.53;;;3.20;;
18931;SDS011;9598;50.954;3.112;2022-08-01T03:20:22;4.43;;;2.92;;
18931;SDS011;9598;50.954;3.112;2022-08-01T03:25:27;4.68;;;3.03;;
18931;SDS011;9598;50.954;3.112;2022-08-01T03:30:32;4.93;;;3.20;;
18931;SDS011;9598;50.954;3.112;2022-08-01T03:35:36;3.65;;;2.80;;
18931;SDS011;9598;50.954;3.112;2022-08-01T03:40:43;3.40;;;2.78;;
18931;SDS011;9598;50.954;3.112;2022-08-01T03:45:51;5.20;;;3.30;;
18931;SDS011;9598;50.954;3.112;2022-08-01T03:50:55;3.70;;;2.88;;
18931;SDS011;9598;50.954;3.112;2022-08-01T03:56:00;3.70;;;3.30;;
18931;SDS011;9598;50.954;3.112;2022-08-01T04:01:06;4.32;;;2.90;;
18931;SDS011;9598;50.954;3.112;2022-08-01T04:06:10;3.70;;;3.40;;
18931;SDS011;9598;50.954;3.112;2022-08-01T04:11:14;3.53;;;3.22;;
18931;SDS011;9598;50.954;3.112;2022-08-01T04:16:17;6.07;;;3.17;;
18931;SDS011;9598;50.954;3.112;2022-08-01T04:21:20;4.00;;;3.30;;
18931;SDS011;9598;50.954;3.112;2022-08-01T04:26:25;5.15;;;3.47;;
18931;SDS011;9598;50.954;3.112;2022-08-01T04:31:30;5.80;;;3.92;;
18931;SDS011;9598;50.954;3.112;2022-08-01T04:36:35;4.10;;;3.80;;
18931;SDS011;9598;50.954;3.112;2022-08-01T04:41:42;4.68;;;4.18;;
18931;SDS011;9598;50.954;3.112;2022-08-01T04:46:48;6.25;;;3.67;;
18931;SDS011;9598;50.954;3.112;2022-08-01T04:51:51;4.20;;;3.80;;
18931;SDS011;9598;50.954;3.112;2022-08-01T04:56:57;4.40;;;4.00;;
18931;SDS011;9598;50.954;3.112;2022-08-01T05:02:01;3.97;;;3.60;;
18931;SDS011;9598;50.954;3.112;2022-08-01T05:07:03;4.10;;;3.72;;
18931;SDS011;9598;50.954;3.112;2022-08-01T05:12:06;4.05;;;3.75;;
18931;SDS011;9598;50.954;3.112;2022-08-01T05:17:12;4.47;;;4.07;;
18931;SDS011;9598;50.954;3.112;2022-08-01T05:22:14;4.95;;;4.55;;
18931;SDS011;9598;50.954;3.112;2022-08-01T05:27:17;5.95;;;4.47;;
18931;SDS011;9598;50.954;3.112;2022-08-01T05:32:21;5.20;;;4.70;;
18931;SDS011;9598;50.954;3.112;2022-08-01T05:37:24;6.15;;;5.07;;
18931;SDS011;9598;50.954;3.112;2022-08-01T05:42:26;5.68;;;5.25;;
18931;SDS011;9598;50.954;3.112;2022-08-01T05:47:30;5.90;;;5.40;;
18931;SDS011;9598;50.954;3.112;2022-08-01T05:52:32;6.90;;;5.63;;
18931;SDS011;9598;50.954;3.112;2022-08-01T05:57:34;7.47;;;6.85;;
18931;SDS011;9598;50.954;3.112;2022-08-01T06:02:40;8.00;;;7.30;;
18931;SDS011;9598;50.954;3.112;2022-08-01T06:07:43;7.82;;;7.13;;
18931;SDS011;9598;50.954;3.112;2022-08-01T06:12:45;7.13;;;6.43;;
18931;SDS011;9598;50.954;3.112;2022-08-01T06:17:49;6.68;;;6.13;;
18931;SDS011;9598;50.954;3.112;2022-08-01T06:22:51;6.47;;;5.93;;
18931;SDS011;9598;50.954;3.112;2022-08-01T06:27:53;7.80;;;7.10;;
18931;SDS011;9598;50.954;3.112;2022-08-01T06:32:56;7.53;;;6.85;;
18931;SDS011;9598;50.954;3.112;2022-08-01T06:38:00;6.60;;;5.93;;
18931;SDS011;9598;50.954;3.112;2022-08-01T06:43:03;5.82;;;5.32;;
18931;SDS011;9598;50.954;3.112;2022-08-01T06:48:06;5.75;;;5.25;;
18931;SDS011;9598;50.954;3.112;2022-08-01T06:53:08;6.15;;;5.57;;
18931;SDS011;9598;50.954;3.112;2022-08-01T06:58:10;5.95;;;5.43;;
18931;SDS011;9598;50.954;3.112;2022-08-01T07:03:14;5.53;;;5.03;;
18931;SDS011;9598;50.954;3.112;2022-08-01T07:08:16;5.38;;;4.88;;
18931;SDS011;9598;50.954;3.112;2022-08-01T07:13:18;4.40;;;3.75;;
18931;SDS011;9598;50.954;3.112;2022-08-01T07:18:26;4.38;;;4.00;;
18931;SDS011;9598;50.954;3.112;2022-08-01T07:23:28;7.25;;;3.67;;
18931;SDS011;9598;50.954;3.112;2022-08-01T07:28:30;4.82;;;3.33;;
18931;SDS011;9598;50.954;3.112;2022-08-01T07:33:33;5.05;;;3.80;;
18931;SDS011;9598;50.954;3.112;2022-08-01T07:38:36;3.33;;;3.03;;
18931;SDS011;9598;50.954;3.112;2022-08-01T07:43:38;5.82;;;3.22;;
18931;SDS011;9598;50.954;3.112;2022-08-01T07:48:42;2.70;;;2.40;;
18931;SDS011;9598;50.954;3.112;2022-08-01T07:53:44;4.93;;;2.92;;
18931;SDS011;9598;50.954;3.112;2022-08-01T07:58:46;3.30;;;3.10;;
18931;SDS011;9598;50.954;3.112;2022-08-01T08:03:50;3.63;;;2.63;;
18931;SDS011;9598;50.954;3.112;2022-08-01T08:08:52;4.28;;;3.25;;
18931;SDS011;9598;50.954;3.112;2022-08-01T08:13:54;3.33;;;2.97;;
18931;SDS011;9598;50.954;3.112;2022-08-01T08:18:58;3.75;;;2.60;;
18931;SDS011;9598;50.954;3.112;2022-08-01T08:24:03;3.65;;;3.28;;
18931;SDS011;9598;50.954;3.112;2022-08-01T08:29:20;4.72;;;2.95;;
18931;SDS011;9598;50.954;3.112;2022-08-01T08:34:24;3.50;;;2.38;;
18931;SDS011;9598;50.954;3.112;2022-08-01T08:39:27;4.43;;;2.65;;
18931;SDS011;9598;50.954;3.112;2022-08-01T08:44:29;3.20;;;2.83;;
18931;SDS011;9598;50.954;3.112;2022-08-01T08:49:36;4.00;;;3.00;;
18931;SDS011;9598;50.954;3.112;2022-08-01T09:00:29;4.03;;;2.75;;
18931;SDS011;9598;50.954;3.112;2022-08-01T09:05:32;2.78;;;2.50;;
18931;SDS011;9598;50.954;3.112;2022-08-01T09:10:35;3.63;;;2.65;;
18931;SDS011;9598;50.954;3.112;2022-08-01T09:15:38;4.03;;;2.20;;
18931;SDS011;9598;50.954;3.112;2022-08-01T09:20:45;2.85;;;2.50;;
18931;SDS011;9598;50.954;3.112;2022-08-01T09:25:50;3.10;;;2.55;;
18931;SDS011;9598;50.954;3.112;2022-08-01T09:30:55;4.53;;;2.75;;
18931;SDS011;9598;50.954;3.112;2022-08-01T09:35:58;2.42;;;2.20;;
18931;SDS011;9598;50.954;3.112;2022-08-01T09:41:00;3.50;;;2.78;;
18931;SDS011;9598;50.954;3.112;2022-08-01T09:46:04;2.72;;;2.53;;
18931;SDS011;9598;50.954;3.112;2022-08-01T09:51:11;2.50;;;2.30;;
18931;SDS011;9598;50.954;3.112;2022-08-01T09:56:16;3.70;;;2.50;;
18931;SDS011;9598;50.954;3.112;2022-08-01T10:01:20;2.50;;;2.10;;
18931;SDS011;9598;50.954;3.112;2022-08-01T10:06:24;2.95;;;2.13;;
18931;SDS011;9598;50.954;3.112;2022-08-01T10:11:26;2.92;;;2.30;;
18931;SDS011;9598;50.954;3.112;2022-08-01T10:16:32;3.13;;;2.20;;
18931;SDS011;9598;50.954;3.112;2022-08-01T10:21:37;2.60;;;2.22;;
18931;SDS011;9598;50.954;3.112;2022-08-01T10:26:40;2.88;;;2.60;;
18931;SDS011;9598;50.954;3.112;2022-08-01T10:31:44;3.70;;;2.80;;
18931;SDS011;9598;50.954;3.112;2022-08-01T10:36:49;3.25;;;2.95;;
18931;SDS011;9598;50.954;3.112;2022-08-01T10:41:51;3.30;;;2.83;;
18931;SDS011;9598;50.954;3.112;2022-08-01T10:46:56;3.08;;;2.78;;
18931;SDS011;9598;50.954;3.112;2022-08-01T10:52:15;2.58;;;2.42;;
18931;SDS011;9598;50.954;3.112;2022-08-01T10:57:17;3.35;;;2.40;;
18931;SDS011;9598;50.954;3.112;2022-08-01T11:02:26;2.40;;;2.20;;
18931;SDS011;9598;50.954;3.112;2022-08-01T11:07:42;2.33;;;2.17;;
18931;SDS011;9598;50.954;3.112;2022-08-01T11:12:47;3.20;;;2.30;;
18931;SDS011;9598;50.954;3.112;2022-08-01T11:17:49;2.80;;;2.28;;
18931;SDS011;9598;50.954;3.112;2022-08-01T11:28:27;2.45;;;2.25;;
18931;SDS011;9598;50.954;3.112;2022-08-01T11:33:47;1.92;;;1.77;;
18931;SDS011;9598;50.954;3.112;2022-08-01T11:44:18;2.70;;;2.50;;
18931;SDS011;9598;50.954;3.112;2022-08-01T11:54:57;3.03;;;2.38;;
18931;SDS011;9598;50.954;3.112;2022-08-01T12:00:10;2.38;;;2.17;;
18931;SDS011;9598;50.954;3.112;2022-08-01T12:05:14;2.70;;;2.45;;
18931;SDS011;9598;50.954;3.112;2022-08-01T12:10:22;1.90;;;1.80;;
18931;SDS011;9598;50.954;3.112;2022-08-01T12:15:29;2.20;;;2.10;;
18931;SDS011;9598;50.954;3.112;2022-08-01T12:20:33;2.08;;;1.88;;
18931;SDS011;9598;50.954;3.112;2022-08-01T12:25:38;1.75;;;1.60;;
18931;SDS011;9598;50.954;3.112;2022-08-01T12:30:43;2.20;;;2.00;;
18931;SDS011;9598;50.954;3.112;2022-08-01T12:35:49;1.80;;;1.70;;
18931;SDS011;9598;50.954;3.112;2022-08-01T12:40:54;2.25;;;1.55;;
18931;SDS011;9598;50.954;3.112;2022-08-01T12:45:57;1.55;;;1.45;;
18931;SDS011;9598;50.954;3.112;2022-08-01T12:51:02;1.90;;;1.52;;
18931;SDS011;9598;50.954;3.112;2022-08-01T12:56:06;2.63;;;1.80;;
18931;SDS011;9598;50.954;3.112;2022-08-01T13:01:10;1.50;;;1.40;;
18931;SDS011;9598;50.954;3.112;2022-08-01T13:06:13;9.55;;;2.30;;
18931;SDS011;9598;50.954;3.112;2022-08-01T13:11:17;1.50;;;1.40;;
18931;SDS011;9598;50.954;3.112;2022-08-01T13:16:20;1.98;;;1.60;;
18931;SDS011;9598;50.954;3.112;2022-08-01T13:21:24;1.80;;;1.70;;
18931;SDS011;9598;50.954;3.112;2022-08-01T13:26:41;2.10;;;1.90;;
18931;SDS011;9598;50.954;3.112;2022-08-01T13:31:45;3.22;;;1.55;;
18931;SDS011;9598;50.954;3.112;2022-08-01T13:36:47;2.83;;;2.03;;
18931;SDS011;9598;50.954;3.112;2022-08-01T13:41:51;2.78;;;2.25;;
18931;SDS011;9598;50.954;3.112;2022-08-01T13:46:53;1.90;;;1.80;;
18931;SDS011;9598;50.954;3.112;2022-08-01T13:51:56;3.63;;;1.88;;
18931;SDS011;9598;50.954;3.112;2022-08-01T13:56:59;2.75;;;1.90;;
18931;SDS011;9598;50.954;3.112;2022-08-01T14:02:02;3.05;;;1.85;;
18931;SDS011;9598;50.954;3.112;2022-08-01T14:07:04;2.30;;;2.03;;
18931;SDS011;9598;50.954;3.112;2022-08-01T14:12:07;2.35;;;1.98;;
18931;SDS011;9598;50.954;3.112;2022-08-01T14:17:10;2.33;;;1.90;;
18931;SDS011;9598;50.954;3.112;2022-08-01T14:22:12;2.03;;;1.90;;
18931;SDS011;9598;50.954;3.112;2022-08-01T14:27:15;1.70;;;1.60;;
18931;SDS011;9598;50.954;3.112;2022-08-01T14:32:20;2.22;;;2.03;;
18931;SDS011;9598;50.954;3.112;2022-08-01T14:37:22;3.25;;;2.67;;
18931;SDS011;9598;50.954;3.112;2022-08-01T14:42:26;2.20;;;1.75;;
18931;SDS011;9598;50.954;3.112;2022-08-01T14:47:28;3.67;;;2.10;;
18931;SDS011;9598;50.954;3.112;2022-08-01T14:52:30;3.72;;;1.90;;
18931;SDS011;9598;50.954;3.112;2022-08-01T14:57:34;3.85;;;1.80;;
18931;SDS011;9598;50.954;3.112;2022-08-01T15:02:36;2.08;;;1.88;;
18931;SDS011;9598;50.954;3.112;2022-08-01T15:07:38;1.77;;;1.67;;
18931;SDS011;9598;50.954;3.112;2022-08-01T15:12:42;2.78;;;2.00;;
18931;SDS011;9598;50.954;3.112;2022-08-01T15:17:44;2.05;;;1.52;;
18931;SDS011;9598;50.954;3.112;2022-08-01T15:22:46;1.92;;;1.83;;
18931;SDS011;9598;50.954;3.112;2022-08-01T15:27:50;2.03;;;1.77;;
18931;SDS011;9598;50.954;3.112;2022-08-01T15:32:52;5.47;;;1.90;;
18931;SDS011;9598;50.954;3.112;2022-08-01T15:37:54;2.80;;;2.03;;
18931;SDS011;9598;50.954;3.112;2022-08-01T15:42:57;2.35;;;1.73;;
18931;SDS011;9598;50.954;3.112;2022-08-01T15:47:59;2.50;;;1.88;;
18931;SDS011;9598;50.954;3.112;2022-08-01T15:53:02;2.63;;;2.38;;
18931;SDS011;9598;50.954;3.112;2022-08-01T15:58:05;3.22;;;1.70;;
18931;SDS011;9598;50.954;3.112;2022-08-01T16:03:08;2.17;;;1.70;;
18931;SDS011;9598;50.954;3.112;2022-08-01T16:08:11;1.95;;;1.75;;
18931;SDS011;9598;50.954;3.112;2022-08-01T16:13:15;1.90;;;1.50;;
18931;SDS011;9598;50.954;3.112;2022-08-01T16:18:18;1.80;;;1.70;;
18931;SDS011;9598;50.954;3.112;2022-08-01T16:23:20;3.70;;;1.77;;
18931;SDS011;9598;50.954;3.112;2022-08-01T16:28:23;1.90;;;1.80;;
18931;SDS011;9598;50.954;3.112;2022-08-01T16:33:26;2.67;;;2.03;;
18931;SDS011;9598;50.954;3.112;2022-08-01T16:38:28;2.38;;;1.52;;
18931;SDS011;9598;50.954;3.112;2022-08-01T16:43:31;2.20;;;1.70;;
18931;SDS011;9598;50.954;3.112;2022-08-01T16:48:33;1.60;;;1.50;;
18931;SDS011;9598;50.954;3.112;2022-08-01T16:53:36;1.95;;;1.67;;
18931;SDS011;9598;50.954;3.112;2022-08-01T16:58:39;2.03;;;1.73;;
18931;SDS011;9598;50.954;3.112;2022-08-01T17:03:41;1.92;;;1.60;;
18931;SDS011;9598;50.954;3.112;2022-08-01T17:08:43;1.85;;;1.75;;
18931;SDS011;9598;50.954;3.112;2022-08-01T17:13:47;2.53;;;1.80;;
18931;SDS011;9598;50.954;3.112;2022-08-01T17:18:52;1.70;;;1.60;;
18931;SDS011;9598;50.954;3.112;2022-08-01T17:23:54;3.20;;;1.80;;
18931;SDS011;9598;50.954;3.112;2022-08-01T17:28:58;1.98;;;1.30;;
18931;SDS011;9598;50.954;3.112;2022-08-01T17:34:00;1.30;;;1.20;;
18931;SDS011;9598;50.954;3.112;2022-08-01T17:39:02;2.25;;;1.10;;
18931;SDS011;9598;50.954;3.112;2022-08-01T17:44:07;2.38;;;1.35;;
18931;SDS011;9598;50.954;3.112;2022-08-01T17:49:09;1.55;;;1.45;;
18931;SDS011;9598;50.954;3.112;2022-08-01T17:54:11;3.65;;;1.60;;
18931;SDS011;9598;50.954;3.112;2022-08-01T17:59:17;1.60;;;1.50;;
18931;SDS011;9598;50.954;3.112;2022-08-01T18:04:19;1.90;;;1.50;;
18931;SDS011;9598;50.954;3.112;2022-08-01T18:09:22;2.05;;;1.60;;
18931;SDS011;9598;50.954;3.112;2022-08-01T18:14:25;2.28;;;1.50;;
18931;SDS011;9598;50.954;3.112;2022-08-01T18:19:30;1.50;;;1.40;;
18931;SDS011;9598;50.954;3.112;2022-08-01T18:24:32;2.47;;;1.38;;
18931;SDS011;9598;50.954;3.112;2022-08-01T18:29:36;1.83;;;1.40;;
18931;SDS011;9598;50.954;3.112;2022-08-01T18:34:38;7.05;;;1.67;;
18931;SDS011;9598;50.954;3.112;2022-08-01T18:39:40;10.40;;;2.55;;
18931;SDS011;9598;50.954;3.112;2022-08-01T18:44:43;5.65;;;1.40;;
18931;SDS011;9598;50.954;3.112;2022-08-01T18:49:45;1.60;;;1.38;;
18931;SDS011;9598;50.954;3.112;2022-08-01T18:54:47;2.63;;;1.45;;
18931;SDS011;9598;50.954;3.112;2022-08-01T18:59:52;1.58;;;1.48;;
18931;SDS011;9598;50.954;3.112;2022-08-01T19:04:54;2.35;;;2.08;;
18931;SDS011;9598;50.954;3.112;2022-08-01T19:09:56;4.47;;;3.47;;
18931;SDS011;9598;50.954;3.112;2022-08-01T19:15:00;4.65;;;3.20;;
18931;SDS011;9598;50.954;3.112;2022-08-01T19:20:02;3.20;;;2.88;;
18931;SDS011;9598;50.954;3.112;2022-08-01T19:25:05;4.10;;;3.10;;
18931;SDS011;9598;50.954;3.112;2022-08-01T19:30:09;3.58;;;3.28;;
18931;SDS011;9598;50.954;3.112;2022-08-01T19:35:13;3.88;;;3.33;;
18931;SDS011;9598;50.954;3.112;2022-08-01T19:40:16;3.88;;;3.42;;
18931;SDS011;9598;50.954;3.112;2022-08-01T19:45:20;3.00;;;2.70;;
18931;SDS011;9598;50.954;3.112;2022-08-01T19:50:23;1.90;;;1.38;;
18931;SDS011;9598;50.954;3.112;2022-08-01T19:55:26;2.30;;;1.35;;
18931;SDS011;9598;50.954;3.112;2022-08-01T20:00:31;2.28;;;1.40;;
18931;SDS011;9598;50.954;3.112;2022-08-01T20:05:36;2.75;;;1.67;;
18931;SDS011;9598;50.954;3.112;2022-08-01T20:10:39;2.45;;;1.35;;
18931;SDS011;9598;50.954;3.112;2022-08-01T20:15:42;1.90;;;1.38;;
18931;SDS011;9598;50.954;3.112;2022-08-01T20:20:45;3.70;;;1.48;;
18931;SDS011;9598;50.954;3.112;2022-08-01T20:25:49;2.53;;;1.50;;
18931;SDS011;9598;50.954;3.112;2022-08-01T20:30:54;3.28;;;1.30;;
18931;SDS011;9598;50.954;3.112;2022-08-01T20:35:58;2.63;;;1.20;;
18931;SDS011;9598;50.954;3.112;2022-08-01T20:41:02;2.08;;;1.38;;
18931;SDS011;9598;50.954;3.112;2022-08-01T20:46:05;3.30;;;2.00;;
18931;SDS011;9598;50.954;3.112;2022-08-01T20:51:07;2.03;;;1.83;;
18931;SDS011;9598;50.954;3.112;2022-08-01T20:56:18;2.15;;;1.65;;
18931;SDS011;9598;50.954;3.112;2022-08-01T21:01:27;3.80;;;1.77;;
18931;SDS011;9598;50.954;3.112;2022-08-01T21:06:32;3.25;;;2.17;;
18931;SDS011;9598;50.954;3.112;2022-08-01T21:11:37;4.68;;;3.90;;
18931;SDS011;9598;50.954;3.112;2022-08-01T21:16:45;5.10;;;4.25;;
18931;SDS011;9598;50.954;3.112;2022-08-01T21:21:50;5.45;;;4.95;;
18931;SDS011;9598;50.954;3.112;2022-08-01T21:27:02;7.45;;;5.80;;
18931;SDS011;9598;50.954;3.112;2022-08-01T21:32:06;7.60;;;6.85;;
18931;SDS011;9598;50.954;3.112;2022-08-01T21:37:14;7.07;;;6.45;;
18931;SDS011;9598;50.954;3.112;2022-08-01T21:42:17;7.38;;;6.68;;
18931;SDS011;9598;50.954;3.112;2022-08-01T21:47:20;7.95;;;7.15;;
18931;SDS011;9598;50.954;3.112;2022-08-01T21:52:23;7.25;;;6.43;;
18931;SDS011;9598;50.954;3.112;2022-08-01T22:02:59;7.70;;;6.88;;
18931;SDS011;9598;50.954;3.112;2022-08-01T22:08:12;9.05;;;8.25;;
18931;SDS011;9598;50.954;3.112;2022-08-01T22:13:19;9.20;;;8.40;;
18931;SDS011;9598;50.954;3.112;2022-08-01T22:18:23;10.93;;;9.48;;
18931;SDS011;9598;50.954;3.112;2022-08-01T22:23:27;11.02;;;10.07;;
18931;SDS011;9598;50.954;3.112;2022-08-01T22:28:29;10.32;;;9.45;;
18931;SDS011;9598;50.954;3.112;2022-08-01T22:33:34;10.38;;;8.30;;
18931;SDS011;9598;50.954;3.112;2022-08-01T22:38:37;10.55;;;9.52;;
18931;SDS011;9598;50.954;3.112;2022-08-01T22:43:41;10.00;;;8.95;;
18931;SDS011;9598;50.954;3.112;2022-08-01T22:48:54;11.48;;;10.32;;
18931;SDS011;9598;50.954;3.112;2022-08-01T22:54:02;11.32;;;10.23;;
18931;SDS011;9598;50.954;3.112;2022-08-01T22:59:07;11.43;;;10.32;;
18931;SDS011;9598;50.954;3.112;2022-08-01T23:04:22;11.70;;;10.13;;
18931;SDS011;9598;50.954;3.112;2022-08-01T23:09:31;12.32;;;11.02;;
18931;SDS011;9598;50.954;3.112;2022-08-01T23:14:34;12.77;;;11.50;;
18931;SDS011;9598;50.954;3.112;2022-08-01T23:19:39;13.77;;;12.50;;
18931;SDS011;9598;50.954;3.112;2022-08-01T23:24:42;13.93;;;12.57;;
18931;SDS011;9598;50.954;3.112;2022-08-01T23:29:45;14.48;;;13.18;;
18931;SDS011;9598;50.954;3.112;2022-08-01T23:34:50;16.80;;;15.00;;
18931;SDS011;9598;50.954;3.112;2022-08-01T23:39:52;17.13;;;15.52;;
18931;SDS011;9598;50.954;3.112;2022-08-01T23:44:54;16.65;;;15.00;;
18931;SDS011;9598;50.954;3.112;2022-08-01T23:49:57;17.02;;;15.23;;
18931;SDS011;9598;50.954;3.112;2022-08-01T23:55:00;16.08;;;14.57;;
